sensor_id;sensor_type;location;lat;lon;timestamp;temperature;humidity
43249;DHT22;29216;51.248;6.808;2022-11-27T00:01:19;5.50;99.90
43249;DHT22;29216;51.248;6.808;2022-11-27T00:03:46;5.60;99.90
43249;DHT22;29216;51.248;6.808;2022-11-27T00:06:17;5.60;99.90
43249;DHT22;29216;51.248;6.808;2022-11-27T00:08:44;5.60;99.90
43249;DHT22;29216;51.248;6.808;2022-11-27T00:11:15;5.60;99.90
43249;DHT22;29216;51.248;6.808;2022-11-27T00:13:41;5.60;99.90
43249;DHT22;29216;51.248;6.808;2022-11-27T00:16:07;5.60;99.90
43249;DHT22;29216;51.248;6.808;2022-11-27T00:18:34;5.60;99.90
43249;DHT22;29216;51.248;6.808;2022-11-27T00:21:09;5.60;99.90
43249;DHT22;29216;51.248;6.808;2022-11-27T00:23:35;5.60;99.90
43249;DHT22;29216;51.248;6.808;2022-11-27T00:26:01;5.60;99.90
43249;DHT22;29216;51.248;6.808;2022-11-27T00:28:27;5.60;99.90
43249;DHT22;29216;51.248;6.808;2022-11-27T00:30:57;5.60;99.90
43249;DHT22;29216;51.248;6.808;2022-11-27T00:33:23;5.60;99.90
43249;DHT22;29216;51.248;6.808;2022-11-27T00:35:49;5.60;99.90
43249;DHT22;29216;51.248;6.808;2022-11-27T00:38:15;5.60;99.90
43249;DHT22;29216;51.248;6.808;2022-11-27T00:40:43;5.60;99.90
43249;DHT22;29216;51.248;6.808;2022-11-27T00:43:09;5.60;99.90
43249;DHT22;29216;51.248;6.808;2022-11-27T00:45:34;5.50;99.90
43249;DHT22;29216;51.248;6.808;2022-11-27T00:48:00;5.50;99.90
43249;DHT22;29216;51.248;6.808;2022-11-27T00:50:25;5.40;99.90
43249;DHT22;29216;51.248;6.808;2022-11-27T00:52:51;5.40;99.90
43249;DHT22;29216;51.248;6.808;2022-11-27T00:55:17;5.40;99.90
43249;DHT22;29216;51.248;6.808;2022-11-27T00:57:42;5.40;99.90
43249;DHT22;29216;51.248;6.808;2022-11-27T01:00:09;5.50;99.90
43249;DHT22;29216;51.248;6.808;2022-11-27T01:02:34;5.50;99.90
43249;DHT22;29216;51.248;6.808;2022-11-27T01:05:00;5.50;99.90
43249;DHT22;29216;51.248;6.808;2022-11-27T01:07:26;5.40;99.90
43249;DHT22;29216;51.248;6.808;2022-11-27T01:09:51;5.40;99.90
43249;DHT22;29216;51.248;6.808;2022-11-27T01:12:17;5.50;99.90
43249;DHT22;29216;51.248;6.808;2022-11-27T01:14:42;5.50;99.90
43249;DHT22;29216;51.248;6.808;2022-11-27T01:17:08;5.50;99.90
43249;DHT22;29216;51.248;6.808;2022-11-27T01:19:34;5.60;99.90
43249;DHT22;29216;51.248;6.808;2022-11-27T01:21:59;5.60;99.90
43249;DHT22;29216;51.248;6.808;2022-11-27T01:24:25;5.60;99.90
43249;DHT22;29216;51.248;6.808;2022-11-27T01:26:51;5.60;99.90
43249;DHT22;29216;51.248;6.808;2022-11-27T01:29:16;5.60;99.90
43249;DHT22;29216;51.248;6.808;2022-11-27T01:31:42;5.60;99.90
43249;DHT22;29216;51.248;6.808;2022-11-27T01:34:13;5.60;99.90
43249;DHT22;29216;51.248;6.808;2022-11-27T01:36:40;5.70;99.90
43249;DHT22;29216;51.248;6.808;2022-11-27T01:39:05;5.70;99.90
43249;DHT22;29216;51.248;6.808;2022-11-27T01:41:33;5.70;99.90
43249;DHT22;29216;51.248;6.808;2022-11-27T01:47:26;5.70;99.90
43249;DHT22;29216;51.248;6.808;2022-11-27T01:49:44;5.70;99.90
43249;DHT22;29216;51.248;6.808;2022-11-27T01:52:14;5.70;99.90
43249;DHT22;29216;51.248;6.808;2022-11-27T01:54:57;5.70;99.90
43249;DHT22;29216;51.248;6.808;2022-11-27T01:57:42;5.70;99.90
43249;DHT22;29216;51.248;6.808;2022-11-27T02:00:12;5.70;99.90
43249;DHT22;29216;51.248;6.808;2022-11-27T02:02:39;5.70;99.90
43249;DHT22;29216;51.248;6.808;2022-11-27T02:05:05;5.70;99.90
43249;DHT22;29216;51.248;6.808;2022-11-27T02:07:31;5.70;99.90
43249;DHT22;29216;51.248;6.808;2022-11-27T02:09:57;5.70;99.90
43249;DHT22;29216;51.248;6.808;2022-11-27T02:12:26;5.70;99.90
43249;DHT22;29216;51.248;6.808;2022-11-27T02:15:08;5.70;99.90
43249;DHT22;29216;51.248;6.808;2022-11-27T02:18:12;5.70;99.90
43249;DHT22;29216;51.248;6.808;2022-11-27T02:34:32;5.60;99.90
43249;DHT22;29216;51.248;6.808;2022-11-27T02:43:04;5.60;99.90
43249;DHT22;29216;51.248;6.808;2022-11-27T02:45:34;5.50;99.90
43249;DHT22;29216;51.248;6.808;2022-11-27T02:48:03;5.50;99.90
43249;DHT22;29216;51.248;6.808;2022-11-27T02:50:31;5.50;99.90
43249;DHT22;29216;51.248;6.808;2022-11-27T02:53:02;5.50;99.90
43249;DHT22;29216;51.248;6.808;2022-11-27T02:55:31;5.40;99.90
43249;DHT22;29216;51.248;6.808;2022-11-27T02:58:00;5.30;99.90
43249;DHT22;29216;51.248;6.808;2022-11-27T03:00:28;5.30;99.90
43249;DHT22;29216;51.248;6.808;2022-11-27T03:02:59;5.30;99.90
43249;DHT22;29216;51.248;6.808;2022-11-27T03:05:29;5.20;99.90
43249;DHT22;29216;51.248;6.808;2022-11-27T03:10:31;5.20;99.90
43249;DHT22;29216;51.248;6.808;2022-11-27T03:12:59;5.20;99.90
43249;DHT22;29216;51.248;6.808;2022-11-27T03:15:37;5.20;99.90
43249;DHT22;29216;51.248;6.808;2022-11-27T03:18:17;5.20;99.90
43249;DHT22;29216;51.248;6.808;2022-11-27T03:20:49;5.20;99.90
43249;DHT22;29216;51.248;6.808;2022-11-27T03:23:17;5.10;99.90
43249;DHT22;29216;51.248;6.808;2022-11-27T03:25:43;5.10;99.90
43249;DHT22;29216;51.248;6.808;2022-11-27T03:28:09;5.10;99.90
43249;DHT22;29216;51.248;6.808;2022-11-27T03:30:36;5.00;99.90
43249;DHT22;29216;51.248;6.808;2022-11-27T03:33:04;5.00;99.90
43249;DHT22;29216;51.248;6.808;2022-11-27T03:35:30;5.00;99.90
43249;DHT22;29216;51.248;6.808;2022-11-27T03:37:56;5.00;99.90
43249;DHT22;29216;51.248;6.808;2022-11-27T03:40:28;5.00;99.90
43249;DHT22;29216;51.248;6.808;2022-11-27T03:43:09;5.10;99.90
43249;DHT22;29216;51.248;6.808;2022-11-27T03:45:52;5.10;99.90
43249;DHT22;29216;51.248;6.808;2022-11-27T03:48:34;5.10;99.90
43249;DHT22;29216;51.248;6.808;2022-11-27T03:51:20;5.20;99.90
43249;DHT22;29216;51.248;6.808;2022-11-27T03:54:09;5.20;99.90
43249;DHT22;29216;51.248;6.808;2022-11-27T03:56:46;5.20;99.90
43249;DHT22;29216;51.248;6.808;2022-11-27T03:59:22;5.20;99.90
43249;DHT22;29216;51.248;6.808;2022-11-27T04:01:49;5.20;99.90
43249;DHT22;29216;51.248;6.808;2022-11-27T04:04:15;5.30;99.90
43249;DHT22;29216;51.248;6.808;2022-11-27T04:06:41;5.30;99.90
43249;DHT22;29216;51.248;6.808;2022-11-27T04:09:07;5.40;99.90
43249;DHT22;29216;51.248;6.808;2022-11-27T04:11:32;5.40;99.90
43249;DHT22;29216;51.248;6.808;2022-11-27T04:13:58;5.50;99.90
43249;DHT22;29216;51.248;6.808;2022-11-27T04:16:24;5.50;99.90
43249;DHT22;29216;51.248;6.808;2022-11-27T04:18:49;5.60;99.90
43249;DHT22;29216;51.248;6.808;2022-11-27T04:21:15;5.60;99.90
43249;DHT22;29216;51.248;6.808;2022-11-27T04:23:42;5.60;99.90
43249;DHT22;29216;51.248;6.808;2022-11-27T04:26:08;5.60;99.90
43249;DHT22;29216;51.248;6.808;2022-11-27T04:28:34;5.60;99.90
43249;DHT22;29216;51.248;6.808;2022-11-27T04:31:00;5.60;99.90
43249;DHT22;29216;51.248;6.808;2022-11-27T04:33:26;5.60;99.90
43249;DHT22;29216;51.248;6.808;2022-11-27T04:35:52;5.70;99.90
43249;DHT22;29216;51.248;6.808;2022-11-27T04:38:19;5.70;99.90
43249;DHT22;29216;51.248;6.808;2022-11-27T04:40:45;5.70;99.90
43249;DHT22;29216;51.248;6.808;2022-11-27T04:43:11;5.70;99.90
43249;DHT22;29216;51.248;6.808;2022-11-27T04:45:36;5.70;99.90
43249;DHT22;29216;51.248;6.808;2022-11-27T04:48:03;5.70;99.90
43249;DHT22;29216;51.248;6.808;2022-11-27T04:50:32;5.70;99.90
43249;DHT22;29216;51.248;6.808;2022-11-27T04:52:58;5.80;99.90
43249;DHT22;29216;51.248;6.808;2022-11-27T04:55:24;5.80;99.90
43249;DHT22;29216;51.248;6.808;2022-11-27T04:57:50;5.80;99.90
43249;DHT22;29216;51.248;6.808;2022-11-27T05:00:16;5.80;99.90
43249;DHT22;29216;51.248;6.808;2022-11-27T05:02:44;5.80;99.90
43249;DHT22;29216;51.248;6.808;2022-11-27T05:05:10;5.80;99.90
43249;DHT22;29216;51.248;6.808;2022-11-27T05:07:35;5.80;99.90
43249;DHT22;29216;51.248;6.808;2022-11-27T05:10:02;5.80;99.90
43249;DHT22;29216;51.248;6.808;2022-11-27T05:12:28;5.80;99.90
43249;DHT22;29216;51.248;6.808;2022-11-27T05:14:53;5.80;99.70
43249;DHT22;29216;51.248;6.808;2022-11-27T05:17:19;5.80;99.90
43249;DHT22;29216;51.248;6.808;2022-11-27T05:19:45;5.90;99.90
43249;DHT22;29216;51.248;6.808;2022-11-27T05:22:10;5.90;99.90
43249;DHT22;29216;51.248;6.808;2022-11-27T05:24:36;5.90;99.10
43249;DHT22;29216;51.248;6.808;2022-11-27T05:27:02;5.90;99.00
43249;DHT22;29216;51.248;6.808;2022-11-27T05:29:27;5.90;98.80
43249;DHT22;29216;51.248;6.808;2022-11-27T05:31:53;5.90;99.80
43249;DHT22;29216;51.248;6.808;2022-11-27T05:34:19;5.90;99.80
43249;DHT22;29216;51.248;6.808;2022-11-27T05:36:45;5.90;98.50
43249;DHT22;29216;51.248;6.808;2022-11-27T05:39:11;5.90;98.90
43249;DHT22;29216;51.248;6.808;2022-11-27T05:41:39;5.90;98.20
43249;DHT22;29216;51.248;6.808;2022-11-27T05:44:05;5.90;98.60
43249;DHT22;29216;51.248;6.808;2022-11-27T05:46:31;5.90;98.70
43249;DHT22;29216;51.248;6.808;2022-11-27T05:48:57;5.90;97.80
43249;DHT22;29216;51.248;6.808;2022-11-27T05:51:23;6.00;98.30
43249;DHT22;29216;51.248;6.808;2022-11-27T05:53:49;5.90;98.70
43249;DHT22;29216;51.248;6.808;2022-11-27T05:56:16;6.00;98.20
43249;DHT22;29216;51.248;6.808;2022-11-27T05:58:44;6.00;98.40
43249;DHT22;29216;51.248;6.808;2022-11-27T06:01:12;6.00;98.40
43249;DHT22;29216;51.248;6.808;2022-11-27T06:03:38;6.00;96.40
43249;DHT22;29216;51.248;6.808;2022-11-27T06:06:09;6.00;96.70
43249;DHT22;29216;51.248;6.808;2022-11-27T06:08:38;6.00;96.80
43249;DHT22;29216;51.248;6.808;2022-11-27T06:11:06;6.00;98.30
43249;DHT22;29216;51.248;6.808;2022-11-27T06:13:32;6.00;96.40
43249;DHT22;29216;51.248;6.808;2022-11-27T06:15:59;6.00;96.90
43249;DHT22;29216;51.248;6.808;2022-11-27T06:18:27;6.00;96.30
43249;DHT22;29216;51.248;6.808;2022-11-27T06:20:53;6.10;97.30
43249;DHT22;29216;51.248;6.808;2022-11-27T06:23:19;6.10;96.90
43249;DHT22;29216;51.248;6.808;2022-11-27T06:25:46;6.10;96.70
43249;DHT22;29216;51.248;6.808;2022-11-27T06:28:12;6.10;95.70
43249;DHT22;29216;51.248;6.808;2022-11-27T06:30:37;6.10;97.10
43249;DHT22;29216;51.248;6.808;2022-11-27T06:33:03;6.10;96.70
43249;DHT22;29216;51.248;6.808;2022-11-27T06:35:29;6.10;95.40
43249;DHT22;29216;51.248;6.808;2022-11-27T06:37:55;6.10;96.30
43249;DHT22;29216;51.248;6.808;2022-11-27T06:40:20;6.10;96.00
43249;DHT22;29216;51.248;6.808;2022-11-27T06:42:46;6.10;96.70
43249;DHT22;29216;51.248;6.808;2022-11-27T06:45:12;6.10;96.20
43249;DHT22;29216;51.248;6.808;2022-11-27T06:47:38;6.20;95.00
43249;DHT22;29216;51.248;6.808;2022-11-27T06:50:04;6.10;95.30
43249;DHT22;29216;51.248;6.808;2022-11-27T06:52:30;6.20;95.20
43249;DHT22;29216;51.248;6.808;2022-11-27T06:54:55;6.10;96.10
43249;DHT22;29216;51.248;6.808;2022-11-27T06:57:21;6.10;95.90
43249;DHT22;29216;51.248;6.808;2022-11-27T06:59:46;6.10;96.10
43249;DHT22;29216;51.248;6.808;2022-11-27T07:02:15;6.20;95.90
43249;DHT22;29216;51.248;6.808;2022-11-27T07:04:41;6.10;96.40
43249;DHT22;29216;51.248;6.808;2022-11-27T07:07:06;6.20;96.80
43249;DHT22;29216;51.248;6.808;2022-11-27T07:09:32;6.10;96.70
43249;DHT22;29216;51.248;6.808;2022-11-27T07:11:58;6.10;97.10
43249;DHT22;29216;51.248;6.808;2022-11-27T07:14:23;6.10;98.00
43249;DHT22;29216;51.248;6.808;2022-11-27T07:16:49;6.20;97.50
43249;DHT22;29216;51.248;6.808;2022-11-27T07:19:15;6.20;96.50
43249;DHT22;29216;51.248;6.808;2022-11-27T07:21:40;6.20;96.20
43249;DHT22;29216;51.248;6.808;2022-11-27T07:24:06;6.30;95.80
43249;DHT22;29216;51.248;6.808;2022-11-27T07:26:32;6.30;97.10
43249;DHT22;29216;51.248;6.808;2022-11-27T07:28:58;6.40;95.60
43249;DHT22;29216;51.248;6.808;2022-11-27T07:31:25;6.40;94.80
43249;DHT22;29216;51.248;6.808;2022-11-27T07:33:52;6.50;93.60
43249;DHT22;29216;51.248;6.808;2022-11-27T07:36:24;6.50;94.60
43249;DHT22;29216;51.248;6.808;2022-11-27T07:38:50;6.60;93.90
43249;DHT22;29216;51.248;6.808;2022-11-27T07:41:16;6.60;93.50
43249;DHT22;29216;51.248;6.808;2022-11-27T07:43:43;6.60;93.60
43249;DHT22;29216;51.248;6.808;2022-11-27T07:46:17;6.70;92.60
43249;DHT22;29216;51.248;6.808;2022-11-27T07:48:44;6.70;93.00
43249;DHT22;29216;51.248;6.808;2022-11-27T07:51:12;6.70;91.80
43249;DHT22;29216;51.248;6.808;2022-11-27T07:53:39;6.80;91.10
43249;DHT22;29216;51.248;6.808;2022-11-27T07:56:06;6.80;90.00
43249;DHT22;29216;51.248;6.808;2022-11-27T07:58:32;6.90;91.20
43249;DHT22;29216;51.248;6.808;2022-11-27T08:00:58;6.90;89.80
43249;DHT22;29216;51.248;6.808;2022-11-27T08:03:24;7.00;90.00
43249;DHT22;29216;51.248;6.808;2022-11-27T08:05:50;7.00;91.50
43249;DHT22;29216;51.248;6.808;2022-11-27T08:08:16;7.10;85.60
43249;DHT22;29216;51.248;6.808;2022-11-27T08:10:42;7.20;83.50
43249;DHT22;29216;51.248;6.808;2022-11-27T08:13:07;7.20;82.50
43249;DHT22;29216;51.248;6.808;2022-11-27T08:15:33;7.20;80.80
43249;DHT22;29216;51.248;6.808;2022-11-27T08:18:00;7.30;80.00
43249;DHT22;29216;51.248;6.808;2022-11-27T08:20:26;7.30;78.10
43249;DHT22;29216;51.248;6.808;2022-11-27T08:22:51;7.40;70.90
43249;DHT22;29216;51.248;6.808;2022-11-27T08:25:17;7.50;68.80
43249;DHT22;29216;51.248;6.808;2022-11-27T08:27:43;7.60;68.20
43249;DHT22;29216;51.248;6.808;2022-11-27T08:30:09;7.60;69.00
43249;DHT22;29216;51.248;6.808;2022-11-27T08:32:38;7.80;62.70
43249;DHT22;29216;51.248;6.808;2022-11-27T08:35:04;7.90;53.70
43249;DHT22;29216;51.248;6.808;2022-11-27T08:37:31;8.00;47.40
43249;DHT22;29216;51.248;6.808;2022-11-27T08:39:57;8.00;47.50
43249;DHT22;29216;51.248;6.808;2022-11-27T08:42:22;8.10;46.90
43249;DHT22;29216;51.248;6.808;2022-11-27T08:44:48;8.10;45.20
43249;DHT22;29216;51.248;6.808;2022-11-27T08:47:13;8.10;48.60
43249;DHT22;29216;51.248;6.808;2022-11-27T08:49:41;8.20;42.00
43249;DHT22;29216;51.248;6.808;2022-11-27T08:52:08;8.20;40.80
43249;DHT22;29216;51.248;6.808;2022-11-27T08:54:34;8.20;40.70
43249;DHT22;29216;51.248;6.808;2022-11-27T08:57:00;8.20;40.30
43249;DHT22;29216;51.248;6.808;2022-11-27T08:59:25;8.20;39.50
43249;DHT22;29216;51.248;6.808;2022-11-27T09:01:51;8.30;38.80
43249;DHT22;29216;51.248;6.808;2022-11-27T09:04:16;8.30;33.00
43249;DHT22;29216;51.248;6.808;2022-11-27T09:06:42;8.30;36.10
43249;DHT22;29216;51.248;6.808;2022-11-27T09:09:08;8.30;37.60
43249;DHT22;29216;51.248;6.808;2022-11-27T09:11:34;8.30;35.50
43249;DHT22;29216;51.248;6.808;2022-11-27T09:14:02;8.30;34.20
43249;DHT22;29216;51.248;6.808;2022-11-27T09:16:28;8.40;28.00
43249;DHT22;29216;51.248;6.808;2022-11-27T09:18:55;8.40;30.40
43249;DHT22;29216;51.248;6.808;2022-11-27T09:21:22;8.50;27.30
43249;DHT22;29216;51.248;6.808;2022-11-27T09:23:52;8.50;25.40
43249;DHT22;29216;51.248;6.808;2022-11-27T09:26:18;8.50;24.20
43249;DHT22;29216;51.248;6.808;2022-11-27T09:28:44;8.60;23.40
43249;DHT22;29216;51.248;6.808;2022-11-27T09:31:11;8.70;20.60
43249;DHT22;29216;51.248;6.808;2022-11-27T09:33:38;8.70;20.10
43249;DHT22;29216;51.248;6.808;2022-11-27T09:36:10;8.80;8.10
43249;DHT22;29216;51.248;6.808;2022-11-27T09:38:36;8.90;10.70
43249;DHT22;29216;51.248;6.808;2022-11-27T09:41:37;9.00;1.00
43249;DHT22;29216;51.248;6.808;2022-11-27T09:44:13;9.00;1.00
43249;DHT22;29216;51.248;6.808;2022-11-27T09:46:40;9.10;1.00
43249;DHT22;29216;51.248;6.808;2022-11-27T09:49:11;9.20;1.00
43249;DHT22;29216;51.248;6.808;2022-11-27T09:54:58;9.30;1.00
43249;DHT22;29216;51.248;6.808;2022-11-27T09:57:29;9.30;1.00
43249;DHT22;29216;51.248;6.808;2022-11-27T09:59:59;9.40;1.00
43249;DHT22;29216;51.248;6.808;2022-11-27T10:02:29;9.40;1.00
43249;DHT22;29216;51.248;6.808;2022-11-27T10:04:55;9.50;1.00
43249;DHT22;29216;51.248;6.808;2022-11-27T10:15:43;9.50;1.00
43249;DHT22;29216;51.248;6.808;2022-11-27T10:18:21;9.60;1.00
43249;DHT22;29216;51.248;6.808;2022-11-27T10:20:57;9.50;1.00
43249;DHT22;29216;51.248;6.808;2022-11-27T10:26:01;9.60;1.00
43249;DHT22;29216;51.248;6.808;2022-11-27T10:31:38;9.80;1.00
43249;DHT22;29216;51.248;6.808;2022-11-27T10:34:30;9.80;1.00
43249;DHT22;29216;51.248;6.808;2022-11-27T10:37:01;9.80;1.00
43249;DHT22;29216;51.248;6.808;2022-11-27T10:39:42;9.80;1.00
43249;DHT22;29216;51.248;6.808;2022-11-27T10:42:14;9.90;1.00
43249;DHT22;29216;51.248;6.808;2022-11-27T10:44:58;9.80;1.00
43249;DHT22;29216;51.248;6.808;2022-11-27T10:47:26;9.80;1.00
43249;DHT22;29216;51.248;6.808;2022-11-27T10:49:52;9.90;1.00
43249;DHT22;29216;51.248;6.808;2022-11-27T10:52:18;9.90;1.00
43249;DHT22;29216;51.248;6.808;2022-11-27T10:54:48;9.90;1.00
43249;DHT22;29216;51.248;6.808;2022-11-27T11:00:35;9.90;1.00
43249;DHT22;29216;51.248;6.808;2022-11-27T11:03:03;9.90;1.00
43249;DHT22;29216;51.248;6.808;2022-11-27T11:05:31;9.80;1.00
43249;DHT22;29216;51.248;6.808;2022-11-27T11:08:12;9.80;1.00
43249;DHT22;29216;51.248;6.808;2022-11-27T11:13:26;9.70;1.00
43249;DHT22;29216;51.248;6.808;2022-11-27T11:15:57;9.70;1.00
43249;DHT22;29216;51.248;6.808;2022-11-27T11:18:34;9.60;1.00
43249;DHT22;29216;51.248;6.808;2022-11-27T11:21:02;9.60;1.00
43249;DHT22;29216;51.248;6.808;2022-11-27T11:23:33;9.60;1.00
43249;DHT22;29216;51.248;6.808;2022-11-27T11:26:06;9.50;1.00
43249;DHT22;29216;51.248;6.808;2022-11-27T11:28:35;9.60;1.00
43249;DHT22;29216;51.248;6.808;2022-11-27T11:31:08;9.50;1.00
43249;DHT22;29216;51.248;6.808;2022-11-27T11:33:48;9.40;1.00
43249;DHT22;29216;51.248;6.808;2022-11-27T11:36:15;9.20;1.00
43249;DHT22;29216;51.248;6.808;2022-11-27T11:38:44;9.10;10.40
43249;DHT22;29216;51.248;6.808;2022-11-27T11:41:11;9.10;13.60
43249;DHT22;29216;51.248;6.808;2022-11-27T11:43:38;9.00;11.80
43249;DHT22;29216;51.248;6.808;2022-11-27T11:46:19;9.00;17.50
43249;DHT22;29216;51.248;6.808;2022-11-27T11:48:59;9.10;12.90
43249;DHT22;29216;51.248;6.808;2022-11-27T11:51:32;9.10;16.60
43249;DHT22;29216;51.248;6.808;2022-11-27T11:56:43;9.30;1.00
43249;DHT22;29216;51.248;6.808;2022-11-27T11:59:25;9.40;1.00
43249;DHT22;29216;51.248;6.808;2022-11-27T12:04:56;9.60;1.00
43249;DHT22;29216;51.248;6.808;2022-11-27T12:12:45;9.90;1.00
43249;DHT22;29216;51.248;6.808;2022-11-27T12:17:57;10.00;1.00
43249;DHT22;29216;51.248;6.808;2022-11-27T12:31:50;10.30;1.00
43249;DHT22;29216;51.248;6.808;2022-11-27T12:37:08;10.20;1.00
43249;DHT22;29216;51.248;6.808;2022-11-27T12:45:48;10.40;1.00
43249;DHT22;29216;51.248;6.808;2022-11-27T12:48:26;10.50;1.00
43249;DHT22;29216;51.248;6.808;2022-11-27T12:50:58;10.50;1.00
43249;DHT22;29216;51.248;6.808;2022-11-27T12:53:38;10.50;1.00
43249;DHT22;29216;51.248;6.808;2022-11-27T12:56:17;10.50;1.00
43249;DHT22;29216;51.248;6.808;2022-11-27T12:58:58;10.50;1.00
43249;DHT22;29216;51.248;6.808;2022-11-27T13:01:40;10.50;1.00
43249;DHT22;29216;51.248;6.808;2022-11-27T13:04:23;10.50;1.00
43249;DHT22;29216;51.248;6.808;2022-11-27T13:09:53;10.70;1.00
43249;DHT22;29216;51.248;6.808;2022-11-27T13:15:34;10.80;1.00
43249;DHT22;29216;51.248;6.808;2022-11-27T13:18:18;10.80;1.00
43249;DHT22;29216;51.248;6.808;2022-11-27T13:20:47;10.80;1.00
43249;DHT22;29216;51.248;6.808;2022-11-27T13:23:14;10.80;1.00
43249;DHT22;29216;51.248;6.808;2022-11-27T13:25:50;10.90;1.00
43249;DHT22;29216;51.248;6.808;2022-11-27T13:31:28;10.90;1.00
43249;DHT22;29216;51.248;6.808;2022-11-27T13:34:01;10.80;1.00
43249;DHT22;29216;51.248;6.808;2022-11-27T13:36:38;10.90;1.00
43249;DHT22;29216;51.248;6.808;2022-11-27T13:39:05;10.80;1.00
43249;DHT22;29216;51.248;6.808;2022-11-27T13:41:32;10.80;1.00
43249;DHT22;29216;51.248;6.808;2022-11-27T13:44:00;10.70;1.00
43249;DHT22;29216;51.248;6.808;2022-11-27T13:46:29;10.70;1.00
43249;DHT22;29216;51.248;6.808;2022-11-27T13:49:03;10.70;1.00
43249;DHT22;29216;51.248;6.808;2022-11-27T13:51:35;10.60;1.00
43249;DHT22;29216;51.248;6.808;2022-11-27T13:54:16;10.60;1.00
43249;DHT22;29216;51.248;6.808;2022-11-27T13:56:44;10.60;1.00
43249;DHT22;29216;51.248;6.808;2022-11-27T13:59:23;10.60;1.00
43249;DHT22;29216;51.248;6.808;2022-11-27T14:02:00;10.50;1.00
43249;DHT22;29216;51.248;6.808;2022-11-27T14:04:28;10.60;1.00
43249;DHT22;29216;51.248;6.808;2022-11-27T14:09:37;10.40;1.00
43249;DHT22;29216;51.248;6.808;2022-11-27T14:12:23;10.40;1.00
43249;DHT22;29216;51.248;6.808;2022-11-27T14:17:44;10.30;1.00
43249;DHT22;29216;51.248;6.808;2022-11-27T14:25:26;10.10;1.00
43249;DHT22;29216;51.248;6.808;2022-11-27T14:27:58;10.10;1.00
43249;DHT22;29216;51.248;6.808;2022-11-27T14:30:27;10.10;1.00
43249;DHT22;29216;51.248;6.808;2022-11-27T14:32:53;10.10;1.00
43249;DHT22;29216;51.248;6.808;2022-11-27T14:35:24;10.10;1.00
43249;DHT22;29216;51.248;6.808;2022-11-27T14:37:53;10.00;1.00
43249;DHT22;29216;51.248;6.808;2022-11-27T14:40:28;9.90;1.00
43249;DHT22;29216;51.248;6.808;2022-11-27T14:43:09;9.90;1.00
43249;DHT22;29216;51.248;6.808;2022-11-27T14:45:36;9.90;1.00
43249;DHT22;29216;51.248;6.808;2022-11-27T14:48:02;10.00;1.00
43249;DHT22;29216;51.248;6.808;2022-11-27T14:50:28;10.00;1.00
43249;DHT22;29216;51.248;6.808;2022-11-27T14:52:55;10.00;1.00
43249;DHT22;29216;51.248;6.808;2022-11-27T14:55:21;10.10;1.00
43249;DHT22;29216;51.248;6.808;2022-11-27T14:57:48;10.10;1.00
43249;DHT22;29216;51.248;6.808;2022-11-27T15:02:44;10.00;1.00
43249;DHT22;29216;51.248;6.808;2022-11-27T15:05:24;10.00;1.00
43249;DHT22;29216;51.248;6.808;2022-11-27T15:07:54;10.00;1.00
43249;DHT22;29216;51.248;6.808;2022-11-27T15:12:55;9.80;1.00
43249;DHT22;29216;51.248;6.808;2022-11-27T15:15:23;9.80;1.00
43249;DHT22;29216;51.248;6.808;2022-11-27T15:17:54;9.70;1.00
43249;DHT22;29216;51.248;6.808;2022-11-27T15:20:39;9.60;1.00
43249;DHT22;29216;51.248;6.808;2022-11-27T15:23:26;9.50;1.00
43249;DHT22;29216;51.248;6.808;2022-11-27T15:30:58;9.20;1.00
43249;DHT22;29216;51.248;6.808;2022-11-27T15:33:31;9.10;11.20
43249;DHT22;29216;51.248;6.808;2022-11-27T15:36:19;9.10;15.40
43249;DHT22;29216;51.248;6.808;2022-11-27T15:38:46;8.90;27.00
43249;DHT22;29216;51.248;6.808;2022-11-27T15:41:26;8.90;27.60
43249;DHT22;29216;51.248;6.808;2022-11-27T15:43:52;8.80;33.80
43249;DHT22;29216;51.248;6.808;2022-11-27T15:46:36;8.70;40.60
43249;DHT22;29216;51.248;6.808;2022-11-27T15:49:11;8.70;54.30
43249;DHT22;29216;51.248;6.808;2022-11-27T15:51:37;8.70;42.90
43249;DHT22;29216;51.248;6.808;2022-11-27T15:54:03;8.70;40.20
43249;DHT22;29216;51.248;6.808;2022-11-27T15:56:29;8.60;52.80
43249;DHT22;29216;51.248;6.808;2022-11-27T15:58:54;8.60;48.40
43249;DHT22;29216;51.248;6.808;2022-11-27T16:01:20;8.60;57.00
43249;DHT22;29216;51.248;6.808;2022-11-27T16:03:46;8.60;49.60
43249;DHT22;29216;51.248;6.808;2022-11-27T16:06:12;8.60;49.60
43249;DHT22;29216;51.248;6.808;2022-11-27T16:08:37;8.60;48.70
43249;DHT22;29216;51.248;6.808;2022-11-27T16:11:06;8.60;44.10
43249;DHT22;29216;51.248;6.808;2022-11-27T16:13:33;8.60;53.50
43249;DHT22;29216;51.248;6.808;2022-11-27T16:16:06;8.60;49.10
43249;DHT22;29216;51.248;6.808;2022-11-27T16:18:33;8.60;43.20
43249;DHT22;29216;51.248;6.808;2022-11-27T16:21:07;8.70;52.30
43249;DHT22;29216;51.248;6.808;2022-11-27T16:23:34;8.60;53.00
43249;DHT22;29216;51.248;6.808;2022-11-27T16:25:59;8.60;55.80
43249;DHT22;29216;51.248;6.808;2022-11-27T16:28:26;8.60;56.10
43249;DHT22;29216;51.248;6.808;2022-11-27T16:30:53;8.60;58.10
43249;DHT22;29216;51.248;6.808;2022-11-27T16:33:19;8.60;52.50
43249;DHT22;29216;51.248;6.808;2022-11-27T16:35:46;8.60;52.90
43249;DHT22;29216;51.248;6.808;2022-11-27T16:38:12;8.60;48.10
43249;DHT22;29216;51.248;6.808;2022-11-27T16:40:38;8.60;54.40
43249;DHT22;29216;51.248;6.808;2022-11-27T16:43:03;8.60;49.20
43249;DHT22;29216;51.248;6.808;2022-11-27T16:45:31;8.60;40.30
43249;DHT22;29216;51.248;6.808;2022-11-27T16:47:59;8.60;40.30
43249;DHT22;29216;51.248;6.808;2022-11-27T16:50:25;8.60;34.10
43249;DHT22;29216;51.248;6.808;2022-11-27T16:52:52;8.70;30.80
43249;DHT22;29216;51.248;6.808;2022-11-27T16:55:19;8.70;30.00
43249;DHT22;29216;51.248;6.808;2022-11-27T16:57:45;8.70;28.70
43249;DHT22;29216;51.248;6.808;2022-11-27T17:00:12;8.70;26.60
43249;DHT22;29216;51.248;6.808;2022-11-27T17:02:38;8.70;26.10
43249;DHT22;29216;51.248;6.808;2022-11-27T17:05:04;8.80;23.40
43249;DHT22;29216;51.248;6.808;2022-11-27T17:07:30;8.80;19.70
43249;DHT22;29216;51.248;6.808;2022-11-27T17:09:56;8.80;21.40
43249;DHT22;29216;51.248;6.808;2022-11-27T17:12:25;8.70;21.80
43249;DHT22;29216;51.248;6.808;2022-11-27T17:14:50;8.70;16.80
43249;DHT22;29216;51.248;6.808;2022-11-27T17:17:16;8.80;15.60
43249;DHT22;29216;51.248;6.808;2022-11-27T17:19:44;8.80;10.80
43249;DHT22;29216;51.248;6.808;2022-11-27T17:22:11;8.70;14.20
43249;DHT22;29216;51.248;6.808;2022-11-27T17:24:39;8.70;13.50
43249;DHT22;29216;51.248;6.808;2022-11-27T17:27:05;8.70;14.70
43249;DHT22;29216;51.248;6.808;2022-11-27T17:29:30;8.80;15.30
43249;DHT22;29216;51.248;6.808;2022-11-27T17:31:56;8.80;4.40
43249;DHT22;29216;51.248;6.808;2022-11-27T17:34:24;8.80;4.60
43249;DHT22;29216;51.248;6.808;2022-11-27T17:36:50;8.80;4.30
43249;DHT22;29216;51.248;6.808;2022-11-27T17:39:21;8.80;3.20
43249;DHT22;29216;51.248;6.808;2022-11-27T17:41:47;8.80;4.90
43249;DHT22;29216;51.248;6.808;2022-11-27T17:44:13;8.80;6.40
43249;DHT22;29216;51.248;6.808;2022-11-27T17:46:41;8.70;1.20
43249;DHT22;29216;51.248;6.808;2022-11-27T17:49:15;8.80;4.20
43249;DHT22;29216;51.248;6.808;2022-11-27T17:51:41;8.80;3.10